Time;durP1;ratioP1;P1;durP2;ratioP2;P2;SDS_P1;SDS_P2;PMS_P1;PMS_P2;Temp;Humidity;BMP_temperature;BMP_pressure;BME280_temperature;BME280_humidity;BME280_pressure;Samples;Min_cycle;Max_cycle;Signal;HPM_P1;HPM_P2
2023/11/26 00:02:04;;;;;;;6.22;2.42;;;;;;;;;;4907106;29;20339;-81
2023/11/26 00:04:29;;;;;;;6.53;2.38;;;;;;;;;;4927626;29;20024;-82
2023/11/26 00:06:54;;;;;;;5.35;2.15;;;;;;;;;;4921733;29;20028;-81
2023/11/26 00:09:22;;;;;;;4.93;2.20;;;;;;;;;;4913575;29;20028;-81
2023/11/26 00:11:48;;;;;;;3.85;2.17;;;;;;;;;;4916088;29;20282;-81
2023/11/26 00:14:13;;;;;;;5.70;2.78;;;;;;;;;;4932270;29;20020;-81
2023/11/26 00:16:38;;;;;;;6.30;2.20;;;;;;;;;;4916389;29;20028;-81
2023/11/26 00:19:04;;;;;;;5.40;2.55;;;;;;;;;;4924317;29;20309;-81
2023/11/26 00:21:29;;;;;;;5.20;2.95;;;;;;;;;;4912648;29;20124;-81
2023/11/26 00:23:55;;;;;;;6.70;2.70;;;;;;;;;;4913855;29;20020;-81
2023/11/26 00:26:21;;;;;;;5.50;2.50;;;;;;;;;;4916868;29;20070;-81
2023/11/26 00:28:46;;;;;;;8.00;2.22;;;;;;;;;;4917080;29;20083;-82
2023/11/26 00:31:11;;;;;;;4.67;2.60;;;;;;;;;;4930724;29;20700;-81
2023/11/26 00:33:37;;;;;;;6.00;2.80;;;;;;;;;;4916309;29;20845;-81
2023/11/26 00:36:03;;;;;;;5.82;2.70;;;;;;;;;;4917546;29;20258;-81
2023/11/26 00:38:28;;;;;;;7.85;2.92;;;;;;;;;;4915185;29;20036;-81
2023/11/26 00:40:53;;;;;;;6.57;3.47;;;;;;;;;;4911912;29;20028;-81
2023/11/26 00:43:18;;;;;;;8.50;3.25;;;;;;;;;;4932204;29;20271;-81
2023/11/26 00:45:43;;;;;;;6.47;2.53;;;;;;;;;;4903396;29;20473;-81
2023/11/26 00:48:09;;;;;;;7.77;2.90;;;;;;;;;;4910911;29;20290;-81
2023/11/26 00:50:34;;;;;;;8.10;3.00;;;;;;;;;;4916878;29;20258;-81
2023/11/26 00:53:00;;;;;;;9.57;3.70;;;;;;;;;;4918046;29;20020;-79
2023/11/26 00:55:25;;;;;;;12.98;3.65;;;;;;;;;;4916864;29;20267;-82
2023/11/26 00:57:50;;;;;;;5.77;2.70;;;;;;;;;;4917215;29;20075;-82
2023/11/26 01:00:16;;;;;;;7.28;3.47;;;;;;;;;;4916182;29;20322;-81
2023/11/26 01:02:41;;;;;;;5.82;2.83;;;;;;;;;;4917798;29;20429;-82
2023/11/26 01:05:08;;;;;;;10.15;2.85;;;;;;;;;;4932507;29;20104;-82
2023/11/26 01:07:33;;;;;;;12.02;3.95;;;;;;;;;;4930457;29;20028;-81
2023/11/26 01:09:58;;;;;;;7.30;3.50;;;;;;;;;;4912473;29;20023;-81
2023/11/26 01:12:25;;;;;;;6.43;3.13;;;;;;;;;;4915781;29;20274;-82
2023/11/26 01:14:50;;;;;;;8.57;3.40;;;;;;;;;;4915340;29;20024;-81
2023/11/26 01:17:15;;;;;;;8.27;3.50;;;;;;;;;;4930593;29;20499;-81
2023/11/26 01:19:41;;;;;;;10.70;3.63;;;;;;;;;;4906695;29;20032;-82
2023/11/26 01:22:06;;;;;;;10.10;3.90;;;;;;;;;;4929806;29;20028;-81
2023/11/26 01:24:31;;;;;;;6.20;3.40;;;;;;;;;;4930333;29;20032;-81
2023/11/26 01:26:56;;;;;;;7.17;3.87;;;;;;;;;;4915050;29;20295;-81
2023/11/26 01:29:22;;;;;;;9.07;3.70;;;;;;;;;;4930916;29;20271;-81
2023/11/26 01:31:47;;;;;;;8.27;3.50;;;;;;;;;;4914750;29;20270;-81
2023/11/26 01:34:12;;;;;;;8.83;3.73;;;;;;;;;;4924196;29;20032;-81
2023/11/26 01:36:39;;;;;;;10.60;3.83;;;;;;;;;;4906780;29;20274;-81
2023/11/26 01:39:06;;;;;;;9.23;3.42;;;;;;;;;;4930362;29;20290;-81
2023/11/26 01:41:31;;;;;;;8.57;3.97;;;;;;;;;;4930362;29;20052;-81
2023/11/26 01:43:56;;;;;;;6.68;3.55;;;;;;;;;;4927227;29;20048;-81
2023/11/26 01:46:21;;;;;;;11.87;3.73;;;;;;;;;;4911532;29;20024;-81
2023/11/26 01:48:47;;;;;;;10.23;3.77;;;;;;;;;;4929509;29;20278;-81
2023/11/26 01:51:13;;;;;;;11.90;3.88;;;;;;;;;;4915457;29;20278;-81
2023/11/26 01:53:41;;;;;;;9.13;3.58;;;;;;;;;;4930712;29;20079;-81
2023/11/26 01:56:07;;;;;;;10.18;4.65;;;;;;;;;;4929441;29;20143;-81
2023/11/26 01:58:33;;;;;;;7.28;3.75;;;;;;;;;;4909407;29;20037;-81
2023/11/26 02:00:59;;;;;;;7.25;3.72;;;;;;;;;;4912423;29;20024;-81
2023/11/26 02:03:24;;;;;;;8.40;3.78;;;;;;;;;;4930440;29;20032;-81
2023/11/26 02:05:49;;;;;;;12.20;4.13;;;;;;;;;;4928806;29;20079;-81
2023/11/26 02:08:15;;;;;;;4.97;3.50;;;;;;;;;;4908236;29;20323;-81
2023/11/26 02:10:41;;;;;;;7.18;3.50;;;;;;;;;;4915375;29;20032;-81
2023/11/26 02:13:07;;;;;;;7.88;3.95;;;;;;;;;;4915659;29;20028;-81
2023/11/26 02:15:35;;;;;;;6.68;3.60;;;;;;;;;;4925816;29;20032;-81
2023/11/26 02:18:01;;;;;;;12.18;4.10;;;;;;;;;;4912313;29;20366;-81
2023/11/26 02:20:26;;;;;;;6.15;3.33;;;;;;;;;;4914051;29;20034;-81
2023/11/26 02:22:52;;;;;;;9.85;3.35;;;;;;;;;;4915347;29;20433;-80
2023/11/26 02:25:17;;;;;;;8.60;3.47;;;;;;;;;;4922326;29;20031;-81
2023/11/26 02:27:42;;;;;;;9.30;3.08;;;;;;;;;;4914681;29;20079;-81
2023/11/26 02:30:10;;;;;;;9.38;3.60;;;;;;;;;;4912543;29;20023;-82
2023/11/26 02:32:35;;;;;;;7.32;3.35;;;;;;;;;;4912031;29;20024;-81
2023/11/26 02:35:01;;;;;;;5.68;3.03;;;;;;;;;;4914320;29;20548;-81
2023/11/26 02:37:26;;;;;;;5.45;3.35;;;;;;;;;;4929439;29;20020;-81
2023/11/26 02:39:51;;;;;;;7.67;3.20;;;;;;;;;;4914297;29;20032;-81
2023/11/26 02:42:17;;;;;;;9.53;3.90;;;;;;;;;;4930018;29;20346;-81
2023/11/26 02:44:42;;;;;;;6.50;3.05;;;;;;;;;;4913823;29;20251;-81
2023/11/26 02:47:07;;;;;;;13.10;3.40;;;;;;;;;;4929452;29;20028;-81
2023/11/26 02:49:33;;;;;;;6.25;3.13;;;;;;;;;;4915427;29;20342;-81
2023/11/26 02:51:58;;;;;;;5.55;3.15;;;;;;;;;;4929642;29;20028;-81
2023/11/26 02:54:23;;;;;;;7.40;3.13;;;;;;;;;;4913501;29;20028;-81
2023/11/26 02:56:48;;;;;;;6.93;3.53;;;;;;;;;;4913386;29;20283;-81
2023/11/26 02:59:14;;;;;;;7.95;3.78;;;;;;;;;;4929864;29;20385;-80
2023/11/26 03:01:39;;;;;;;9.83;4.33;;;;;;;;;;4929827;29;20032;-81
2023/11/26 03:04:06;;;;;;;8.67;4.77;;;;;;;;;;4929250;29;20275;-81
2023/11/26 03:06:32;;;;;;;13.93;4.53;;;;;;;;;;4929790;29;20265;-81
2023/11/26 03:09:00;;;;;;;12.98;5.22;;;;;;;;;;4915250;29;20450;-81
2023/11/26 03:14:13;;;;;;;10.07;4.80;;;;;;;;;;4901522;29;20518;-81
2023/11/26 03:16:39;;;;;;;8.63;4.55;;;;;;;;;;4913311;29;20495;-81
2023/11/26 03:19:04;;;;;;;11.63;5.18;;;;;;;;;;4913816;29;20032;-81
2023/11/26 03:21:29;;;;;;;9.57;4.90;;;;;;;;;;4928368;29;20028;-81
2023/11/26 03:23:55;;;;;;;8.10;3.88;;;;;;;;;;4911642;29;20158;-81
2023/11/26 03:26:25;;;;;;;10.83;5.03;;;;;;;;;;4873268;29;1149373;-81
2023/11/26 03:28:54;;;;;;;8.00;4.32;;;;;;;;;;4921804;29;20279;-80
2023/11/26 03:31:21;;;;;;;12.02;5.43;;;;;;;;;;4929020;29;20055;-81
2023/11/26 03:33:47;;;;;;;7.57;5.20;;;;;;;;;;4914275;29;20477;-80
2023/11/26 03:36:12;;;;;;;8.55;4.80;;;;;;;;;;4914048;29;20039;-81
2023/11/26 03:38:37;;;;;;;9.93;5.67;;;;;;;;;;4929840;29;20028;-81
2023/11/26 03:41:03;;;;;;;10.27;5.10;;;;;;;;;;4915666;29;20667;-80
2023/11/26 03:43:29;;;;;;;13.38;6.15;;;;;;;;;;4929190;29;20851;-81
2023/11/26 03:45:56;;;;;;;9.88;5.47;;;;;;;;;;4932901;29;20024;-81
2023/11/26 03:48:21;;;;;;;7.13;4.63;;;;;;;;;;4919231;29;20024;-81
2023/11/26 03:50:46;;;;;;;11.20;5.35;;;;;;;;;;4933142;29;20119;-81
2023/11/26 03:53:11;;;;;;;16.75;5.57;;;;;;;;;;4918832;29;20020;-80
2023/11/26 03:55:37;;;;;;;11.97;5.87;;;;;;;;;;4933740;29;20071;-80
2023/11/26 03:58:02;;;;;;;10.73;5.53;;;;;;;;;;4918651;29;20350;-81
2023/11/26 04:00:27;;;;;;;12.73;6.18;;;;;;;;;;4917791;29;20289;-80
2023/11/26 04:02:53;;;;;;;16.75;6.10;;;;;;;;;;4917033;29;20055;-81
2023/11/26 04:05:18;;;;;;;18.40;6.63;;;;;;;;;;4917722;29;20028;-81
2023/11/26 04:07:44;;;;;;;8.30;5.67;;;;;;;;;;4916765;29;20278;-80
2023/11/26 04:10:10;;;;;;;9.88;5.22;;;;;;;;;;4932883;29;20278;-80
2023/11/26 04:12:35;;;;;;;12.90;6.30;;;;;;;;;;4932272;29;20035;-81
2023/11/26 04:15:03;;;;;;;8.60;5.80;;;;;;;;;;4918911;29;20060;-80
2023/11/26 04:17:28;;;;;;;12.65;6.40;;;;;;;;;;4925787;29;20039;-80
2023/11/26 04:19:57;;;;;;;10.55;5.65;;;;;;;;;;4931360;29;20032;-81
2023/11/26 04:22:22;;;;;;;11.77;5.95;;;;;;;;;;4932619;29;20507;-81
2023/11/26 04:24:48;;;;;;;11.82;6.80;;;;;;;;;;4911269;29;20020;-80
2023/11/26 04:27:14;;;;;;;12.95;5.30;;;;;;;;;;4930918;29;20111;-81
2023/11/26 04:29:39;;;;;;;16.17;6.30;;;;;;;;;;4932935;29;20028;-80
2023/11/26 04:32:05;;;;;;;14.43;5.63;;;;;;;;;;4917693;29;20039;-80
2023/11/26 04:34:30;;;;;;;10.85;5.43;;;;;;;;;;4917774;29;20298;-80
2023/11/26 04:36:56;;;;;;;14.40;6.90;;;;;;;;;;4919417;29;20080;-80
2023/11/26 04:39:21;;;;;;;13.68;5.95;;;;;;;;;;4933828;29;20502;-80
2023/11/26 04:41:46;;;;;;;13.50;6.70;;;;;;;;;;4933227;29;20024;-80
2023/11/26 04:44:12;;;;;;;10.50;5.60;;;;;;;;;;4933980;29;20747;-80
2023/11/26 04:46:38;;;;;;;11.23;5.55;;;;;;;;;;4932825;29;20275;-80
2023/11/26 04:49:03;;;;;;;16.23;6.45;;;;;;;;;;4918655;29;20051;-81
2023/11/26 04:51:29;;;;;;;13.13;7.10;;;;;;;;;;4919187;29;20024;-80
2023/11/26 04:53:55;;;;;;;12.15;6.13;;;;;;;;;;4917696;29;20605;-80
2023/11/26 04:56:20;;;;;;;13.90;6.40;;;;;;;;;;4919001;29;20024;-80
2023/11/26 04:58:45;;;;;;;16.50;6.43;;;;;;;;;;4917259;29;20034;-80
2023/11/26 05:01:15;;;;;;;11.83;5.93;;;;;;;;;;4933583;29;20024;-80
2023/11/26 05:03:40;;;;;;;18.60;6.68;;;;;;;;;;4917748;29;20286;-80
2023/11/26 05:06:05;;;;;;;12.13;5.97;;;;;;;;;;4933035;29;20115;-80
2023/11/26 05:08:30;;;;;;;11.05;6.13;;;;;;;;;;4918921;29;20371;-80
2023/11/26 05:10:56;;;;;;;12.47;6.23;;;;;;;;;;4917637;29;20040;-80
2023/11/26 05:13:21;;;;;;;9.77;5.83;;;;;;;;;;4918943;29;20400;-80
2023/11/26 05:15:47;;;;;;;9.65;6.20;;;;;;;;;;4918218;29;20818;-80
2023/11/26 05:18:12;;;;;;;12.33;5.73;;;;;;;;;;4917481;29;20127;-80
2023/11/26 05:20:37;;;;;;;17.17;6.93;;;;;;;;;;4918034;29;20279;-80
2023/11/26 05:23:03;;;;;;;10.07;5.60;;;;;;;;;;4910211;29;20310;-80
2023/11/26 05:25:30;;;;;;;11.15;5.40;;;;;;;;;;4930919;29;20334;-80
2023/11/26 05:27:55;;;;;;;13.23;6.68;;;;;;;;;;4917292;29;20402;-80
2023/11/26 05:30:20;;;;;;;12.70;5.83;;;;;;;;;;4917389;29;20020;-80
2023/11/26 05:32:46;;;;;;;10.70;5.73;;;;;;;;;;4916855;29;20262;-80
2023/11/26 05:35:13;;;;;;;10.07;5.83;;;;;;;;;;4916737;29;20275;-80
2023/11/26 05:37:40;;;;;;;15.10;6.32;;;;;;;;;;4917693;29;20028;-80
2023/11/26 05:40:06;;;;;;;15.00;6.10;;;;;;;;;;4931443;29;20035;-80
2023/11/26 05:42:32;;;;;;;9.60;6.82;;;;;;;;;;4916868;29;20028;-81
2023/11/26 05:44:57;;;;;;;12.63;6.40;;;;;;;;;;4915820;29;20373;-80
2023/11/26 05:47:22;;;;;;;12.07;6.60;;;;;;;;;;4917194;29;20745;-81
2023/11/26 05:49:47;;;;;;;12.63;6.15;;;;;;;;;;4931493;29;20271;-80
2023/11/26 05:52:12;;;;;;;11.63;5.60;;;;;;;;;;4931153;29;20082;-80
2023/11/26 05:54:38;;;;;;;8.10;5.67;;;;;;;;;;4916601;29;20322;-81
2023/11/26 05:57:03;;;;;;;9.50;5.80;;;;;;;;;;4905081;29;20636;-80
2023/11/26 05:59:28;;;;;;;13.35;5.03;;;;;;;;;;4905096;29;20028;-80
2023/11/26 06:01:54;;;;;;;11.03;5.50;;;;;;;;;;4914550;29;20028;-80
2023/11/26 06:04:19;;;;;;;12.02;6.05;;;;;;;;;;4915995;29;20275;-80
2023/11/26 06:06:44;;;;;;;12.77;5.57;;;;;;;;;;4916780;29;20429;-80
2023/11/26 06:09:09;;;;;;;8.30;4.47;;;;;;;;;;4913981;29;20127;-80
2023/11/26 06:11:36;;;;;;;12.73;5.63;;;;;;;;;;4931445;29;20277;-80
2023/11/26 06:14:01;;;;;;;9.45;5.03;;;;;;;;;;4923492;29;20495;-81
2023/11/26 06:16:26;;;;;;;8.43;5.15;;;;;;;;;;4916532;29;20456;-80
2023/11/26 06:18:51;;;;;;;13.32;5.97;;;;;;;;;;4915844;29;20028;-80
2023/11/26 06:21:18;;;;;;;8.00;4.85;;;;;;;;;;4915971;29;20028;-80
2023/11/26 06:23:43;;;;;;;8.13;5.22;;;;;;;;;;4913389;29;20425;-80
2023/11/26 06:26:08;;;;;;;12.00;5.53;;;;;;;;;;4925742;29;20103;-80
2023/11/26 06:28:34;;;;;;;8.70;4.93;;;;;;;;;;4930447;29;20271;-80
2023/11/26 06:30:59;;;;;;;9.00;5.43;;;;;;;;;;4913993;29;20271;-80
2023/11/26 06:33:24;;;;;;;9.60;5.57;;;;;;;;;;4916644;29;20278;-80
2023/11/26 06:35:49;;;;;;;8.73;5.80;;;;;;;;;;4916093;29;20326;-80
2023/11/26 06:38:14;;;;;;;16.80;6.93;;;;;;;;;;4916686;29;20263;-80
2023/11/26 06:40:40;;;;;;;18.63;6.87;;;;;;;;;;4931823;29;20307;-80
2023/11/26 06:43:05;;;;;;;9.87;5.97;;;;;;;;;;4916041;29;20326;-80
2023/11/26 06:45:30;;;;;;;10.50;5.83;;;;;;;;;;4917281;29;20279;-80
2023/11/26 06:47:56;;;;;;;13.32;5.43;;;;;;;;;;4915364;29;20107;-80
2023/11/26 06:50:22;;;;;;;10.27;6.07;;;;;;;;;;4916008;29;20036;-80
2023/11/26 06:52:47;;;;;;;11.15;5.72;;;;;;;;;;4927296;29;20255;-80
2023/11/26 06:55:12;;;;;;;6.90;5.30;;;;;;;;;;4916489;29;20027;-80
2023/11/26 06:57:37;;;;;;;11.10;5.60;;;;;;;;;;4915944;29;20366;-81
2023/11/26 07:00:04;;;;;;;7.50;5.20;;;;;;;;;;4931242;29;20028;-79
2023/11/26 07:02:29;;;;;;;6.25;4.45;;;;;;;;;;4917086;29;20056;-80
2023/11/26 07:04:55;;;;;;;10.52;4.60;;;;;;;;;;4918691;29;20024;-81
2023/11/26 07:07:20;;;;;;;10.60;5.13;;;;;;;;;;4914230;29;20502;-80
2023/11/26 07:09:46;;;;;;;7.78;4.60;;;;;;;;;;4909156;29;20016;-81
2023/11/26 07:12:11;;;;;;;10.35;5.05;;;;;;;;;;4912119;29;20448;-80
2023/11/26 07:14:37;;;;;;;9.13;4.18;;;;;;;;;;4903115;29;20028;-80
2023/11/26 07:17:02;;;;;;;10.88;5.30;;;;;;;;;;4911415;29;20028;-80
2023/11/26 07:19:27;;;;;;;10.02;4.55;;;;;;;;;;4910756;29;20060;-80
2023/11/26 07:21:52;;;;;;;7.90;4.77;;;;;;;;;;4933724;29;20032;-80
2023/11/26 07:24:18;;;;;;;10.68;5.43;;;;;;;;;;4918398;29;20262;-80
2023/11/26 07:26:43;;;;;;;11.47;5.43;;;;;;;;;;4918885;29;20059;-80
2023/11/26 07:29:08;;;;;;;13.77;5.87;;;;;;;;;;4929024;29;20020;-80
2023/11/26 07:31:33;;;;;;;13.53;5.70;;;;;;;;;;4932167;29;20286;-80
2023/11/26 07:33:59;;;;;;;12.05;5.00;;;;;;;;;;4913884;29;20270;-80
2023/11/26 07:36:24;;;;;;;7.70;4.90;;;;;;;;;;4925814;29;20485;-81
2023/11/26 07:38:53;;;;;;;9.13;5.00;;;;;;;;;;4915851;29;20016;-80
2023/11/26 07:41:18;;;;;;;8.20;4.93;;;;;;;;;;4920819;29;20396;-80
2023/11/26 07:43:44;;;;;;;9.10;5.75;;;;;;;;;;4917855;29;20020;-80
2023/11/26 07:46:10;;;;;;;8.73;5.00;;;;;;;;;;4911132;29;20433;-80
2023/11/26 07:48:36;;;;;;;8.18;4.88;;;;;;;;;;4914959;29;20675;-80
2023/11/26 07:51:03;;;;;;;13.10;4.82;;;;;;;;;;4919002;29;20020;-80
2023/11/26 07:53:30;;;;;;;12.23;5.40;;;;;;;;;;4917174;29;20472;-80
2023/11/26 07:55:56;;;;;;;10.68;5.43;;;;;;;;;;4910659;29;20080;-80
2023/11/26 07:58:25;;;;;;;14.55;5.80;;;;;;;;;;4919016;29;20028;-80
2023/11/26 08:00:51;;;;;;;9.40;5.25;;;;;;;;;;4933147;29;20091;-80
2023/11/26 08:03:16;;;;;;;13.60;5.65;;;;;;;;;;4933067;29;20028;-80
2023/11/26 08:05:43;;;;;;;10.65;5.40;;;;;;;;;;4914868;29;20048;-80
2023/11/26 08:08:08;;;;;;;11.60;6.05;;;;;;;;;;4910711;29;20016;-80
2023/11/26 08:10:33;;;;;;;10.93;5.55;;;;;;;;;;4915781;29;20024;-80
2023/11/26 08:12:59;;;;;;;10.27;5.10;;;;;;;;;;4916782;29;20028;-80
2023/11/26 08:15:25;;;;;;;12.90;5.95;;;;;;;;;;4929478;29;20393;-81
2023/11/26 08:17:51;;;;;;;10.45;5.22;;;;;;;;;;4916201;29;20036;-80
2023/11/26 08:20:17;;;;;;;12.15;5.95;;;;;;;;;;4932075;29;20028;-80
2023/11/26 08:22:46;;;;;;;13.15;6.82;;;;;;;;;;4911954;29;20039;-80
2023/11/26 08:25:12;;;;;;;8.30;5.30;;;;;;;;;;4918216;29;20563;-79
2023/11/26 08:27:44;;;;;;;16.70;6.93;;;;;;;;;;4905268;29;20128;-80
2023/11/26 08:30:15;;;;;;;13.88;6.32;;;;;;;;;;4918679;29;20536;-80
2023/11/26 08:32:46;;;;;;;15.02;7.10;;;;;;;;;;4913948;29;20035;-80
2023/11/26 08:35:12;;;;;;;16.57;6.60;;;;;;;;;;4912810;29;20436;-80
2023/11/26 08:37:43;;;;;;;18.52;7.25;;;;;;;;;;4930136;29;20123;-80
2023/11/26 08:40:11;;;;;;;12.02;6.20;;;;;;;;;;4910995;29;20380;-80
2023/11/26 08:42:37;;;;;;;9.15;5.57;;;;;;;;;;4932073;29;20038;-80
2023/11/26 08:45:02;;;;;;;12.98;6.32;;;;;;;;;;4916568;29;20108;-81
2023/11/26 08:47:30;;;;;;;14.77;6.50;;;;;;;;;;4918009;29;20121;-82
2023/11/26 08:49:56;;;;;;;11.00;6.43;;;;;;;;;;4931859;29;20032;-81
2023/11/26 08:52:25;;;;;;;11.02;6.90;;;;;;;;;;4918231;29;20032;-81
2023/11/26 08:54:50;;;;;;;12.63;6.47;;;;;;;;;;4910334;29;20473;-81
2023/11/26 08:57:20;;;;;;;10.60;6.53;;;;;;;;;;4932290;29;20076;-81
2023/11/26 08:59:46;;;;;;;15.27;6.45;;;;;;;;;;4931706;29;20027;-80
2023/11/26 09:02:12;;;;;;;13.30;6.35;;;;;;;;;;4906249;29;20548;-82
2023/11/26 09:04:38;;;;;;;10.33;5.77;;;;;;;;;;4916241;29;20119;-82
2023/11/26 09:07:04;;;;;;;12.63;5.82;;;;;;;;;;4933378;29;20259;-82
2023/11/26 09:09:29;;;;;;;11.93;6.00;;;;;;;;;;4918822;29;20023;-82
2023/11/26 09:11:55;;;;;;;11.47;5.50;;;;;;;;;;4933443;29;20023;-82
2023/11/26 09:14:20;;;;;;;13.93;5.97;;;;;;;;;;4932817;29;20032;-82
2023/11/26 09:16:46;;;;;;;12.60;6.00;;;;;;;;;;4933377;29;20262;-82
2023/11/26 09:19:12;;;;;;;11.00;5.82;;;;;;;;;;4918595;29;20623;-82
2023/11/26 09:21:37;;;;;;;16.57;6.57;;;;;;;;;;4933154;29;20030;-82
2023/11/26 09:24:02;;;;;;;10.50;6.07;;;;;;;;;;4918143;29;20879;-82
2023/11/26 09:26:27;;;;;;;19.10;6.60;;;;;;;;;;4933071;29;20314;-81
2023/11/26 09:28:53;;;;;;;10.33;6.03;;;;;;;;;;4933158;29;20102;-82
2023/11/26 09:31:18;;;;;;;11.63;6.80;;;;;;;;;;4933129;29;20266;-82
2023/11/26 09:33:43;;;;;;;12.23;5.47;;;;;;;;;;4916808;29;20765;-82
2023/11/26 09:36:09;;;;;;;11.10;5.97;;;;;;;;;;4916951;29;20024;-82
2023/11/26 09:38:36;;;;;;;16.38;6.50;;;;;;;;;;4932956;29;20366;-82
2023/11/26 09:41:02;;;;;;;13.10;7.00;;;;;;;;;;4917167;29;20028;-82
2023/11/26 09:43:30;;;;;;;13.75;6.30;;;;;;;;;;4917529;29;20062;-81
2023/11/26 09:45:56;;;;;;;12.95;6.05;;;;;;;;;;4932186;29;20115;-81
2023/11/26 09:48:21;;;;;;;15.02;6.15;;;;;;;;;;4916964;29;20051;-82
2023/11/26 09:50:50;;;;;;;10.98;5.75;;;;;;;;;;4916959;29;20052;-82
2023/11/26 09:53:17;;;;;;;12.90;6.03;;;;;;;;;;4916320;29;20027;-82
2023/11/26 09:55:42;;;;;;;16.38;6.75;;;;;;;;;;4916971;29;20564;-82
2023/11/26 09:58:08;;;;;;;14.65;6.55;;;;;;;;;;4918044;29;20110;-82
2023/11/26 10:00:33;;;;;;;15.00;6.75;;;;;;;;;;4916748;29;20031;-82
2023/11/26 10:03:00;;;;;;;14.43;6.43;;;;;;;;;;4931980;29;20020;-82
2023/11/26 10:05:25;;;;;;;12.65;6.05;;;;;;;;;;4916637;29;20270;-81
2023/11/26 10:07:54;;;;;;;14.55;5.60;;;;;;;;;;4932489;29;20024;-82
2023/11/26 10:10:20;;;;;;;13.50;6.80;;;;;;;;;;4932453;29;20031;-82
2023/11/26 10:12:52;;;;;;;12.40;6.57;;;;;;;;;;4931803;29;20507;-82
2023/11/26 10:15:19;;;;;;;12.60;6.15;;;;;;;;;;4932285;29;20028;-82
2023/11/26 10:18:04;;;;;;;13.80;6.63;;;;;;;;;;4932347;29;20059;-82
2023/11/26 10:20:29;;;;;;;14.88;7.43;;;;;;;;;;4932290;29;20032;-82
2023/11/26 10:22:56;;;;;;;12.82;7.35;;;;;;;;;;4931568;29;20039;-82
2023/11/26 10:25:21;;;;;;;16.77;7.28;;;;;;;;;;4932143;29;20016;-82
2023/11/26 10:27:47;;;;;;;14.43;6.47;;;;;;;;;;4931953;29;20403;-81
2023/11/26 10:30:24;;;;;;;14.50;7.25;;;;;;;;;;4932166;29;20024;-81
2023/11/26 10:33:01;;;;;;;11.88;6.97;;;;;;;;;;4916933;29;20499;-82
2023/11/26 10:35:41;;;;;;;14.48;8.10;;;;;;;;;;4917483;29;20031;-81
2023/11/26 10:38:08;;;;;;;15.23;7.95;;;;;;;;;;4932013;29;20076;-81
2023/11/26 10:40:33;;;;;;;13.75;7.68;;;;;;;;;;4931975;29;20385;-82
2023/11/26 10:42:59;;;;;;;13.33;7.53;;;;;;;;;;4931411;29;20024;-81
2023/11/26 10:45:27;;;;;;;14.40;7.63;;;;;;;;;;4917265;29;20251;-82
2023/11/26 10:47:54;;;;;;;17.40;7.60;;;;;;;;;;4916005;29;20102;-81
2023/11/26 10:50:21;;;;;;;16.58;8.10;;;;;;;;;;4931873;29;20028;-82
2023/11/26 10:52:53;;;;;;;15.27;7.63;;;;;;;;;;4916611;29;20056;-82
2023/11/26 10:55:24;;;;;;;16.65;8.20;;;;;;;;;;4915930;29;20031;-82
2023/11/26 10:57:54;;;;;;;13.27;7.88;;;;;;;;;;4917157;29;20385;-82
2023/11/26 11:00:19;;;;;;;17.70;8.13;;;;;;;;;;4915868;29;20484;-82
2023/11/26 11:02:45;;;;;;;15.18;6.95;;;;;;;;;;4915209;29;20060;-81
2023/11/26 11:05:11;;;;;;;14.98;7.70;;;;;;;;;;4931632;29;20020;-81
2023/11/26 11:07:37;;;;;;;12.52;6.65;;;;;;;;;;4931543;29;20020;-82
2023/11/26 11:10:06;;;;;;;11.38;6.00;;;;;;;;;;4930940;29;20027;-82
2023/11/26 11:12:41;;;;;;;11.27;6.15;;;;;;;;;;4916552;29;20066;-81
2023/11/26 11:15:06;;;;;;;16.40;6.50;;;;;;;;;;4915744;29;20025;-82
2023/11/26 11:17:31;;;;;;;12.48;6.05;;;;;;;;;;4931509;29;20034;-81
2023/11/26 11:19:57;;;;;;;19.70;7.07;;;;;;;;;;4916333;29;20028;-82
2023/11/26 11:22:32;;;;;;;13.18;6.82;;;;;;;;;;4916801;29;20366;-82
2023/11/26 11:25:08;;;;;;;14.25;6.20;;;;;;;;;;4931502;29;20016;-82
2023/11/26 11:27:46;;;;;;;10.05;6.80;;;;;;;;;;4931365;29;20048;-82
2023/11/26 11:30:30;;;;;;;17.23;6.68;;;;;;;;;;4916319;29;20032;-81
2023/11/26 11:33:05;;;;;;;11.43;6.70;;;;;;;;;;4931474;29;20031;-81
2023/11/26 11:35:46;;;;;;;13.18;5.47;;;;;;;;;;4916869;29;20024;-82
2023/11/26 11:38:12;;;;;;;16.85;6.30;;;;;;;;;;4915591;29;20020;-82
2023/11/26 11:40:56;;;;;;;10.95;5.75;;;;;;;;;;4916133;29;20086;-81
2023/11/26 11:43:22;;;;;;;16.13;6.43;;;;;;;;;;4916637;29;20548;-81
2023/11/26 11:45:47;;;;;;;13.30;5.47;;;;;;;;;;4916765;29;20016;-81
2023/11/26 11:48:32;;;;;;;10.87;5.57;;;;;;;;;;4931284;29;20027;-81
2023/11/26 11:50:57;;;;;;;14.68;5.85;;;;;;;;;;4930474;29;20278;-81
2023/11/26 11:53:23;;;;;;;11.67;5.80;;;;;;;;;;4916693;29;20024;-81
2023/11/26 11:55:57;;;;;;;14.18;5.35;;;;;;;;;;4931249;29;20266;-82
2023/11/26 11:58:22;;;;;;;19.48;5.82;;;;;;;;;;4931233;29;20024;-82
2023/11/26 12:00:48;;;;;;;12.70;5.57;;;;;;;;;;4916010;29;20024;-81
2023/11/26 12:03:15;;;;;;;11.50;5.90;;;;;;;;;;4931093;29;20107;-81
2023/11/26 12:05:40;;;;;;;14.68;6.72;;;;;;;;;;4931926;29;20036;-81
2023/11/26 12:08:11;;;;;;;11.87;7.27;;;;;;;;;;4920071;29;20016;-81
2023/11/26 12:10:36;;;;;;;16.98;8.68;;;;;;;;;;4933485;29;20279;-81
2023/11/26 12:13:02;;;;;;;18.20;6.93;;;;;;;;;;4934745;29;20028;-81
2023/11/26 12:15:31;;;;;;;14.15;6.35;;;;;;;;;;4934565;29;20408;-81
2023/11/26 12:17:57;;;;;;;15.20;6.65;;;;;;;;;;4919869;29;20028;-81
2023/11/26 12:20:23;;;;;;;11.88;5.90;;;;;;;;;;4933891;29;20035;-81
2023/11/26 12:22:48;;;;;;;14.65;6.65;;;;;;;;;;4918512;29;20047;-82
2023/11/26 12:25:21;;;;;;;17.05;7.22;;;;;;;;;;4919794;29;20039;-81
2023/11/26 12:27:46;;;;;;;12.57;6.82;;;;;;;;;;4919547;29;20044;-81
2023/11/26 12:30:13;;;;;;;18.07;7.40;;;;;;;;;;4919056;29;20024;-81
2023/11/26 12:32:40;;;;;;;16.48;9.05;;;;;;;;;;4918379;29;20258;-81
2023/11/26 12:35:10;;;;;;;18.65;8.27;;;;;;;;;;4918347;29;20035;-81
2023/11/26 12:37:35;;;;;;;16.08;7.90;;;;;;;;;;4918295;29;20370;-81
2023/11/26 12:40:01;;;;;;;14.40;7.05;;;;;;;;;;4917586;29;20028;-81
2023/11/26 12:42:26;;;;;;;14.13;7.28;;;;;;;;;;4933891;29;20024;-81
2023/11/26 12:44:52;;;;;;;16.50;6.78;;;;;;;;;;4919381;29;20027;-81
2023/11/26 12:47:17;;;;;;;14.82;6.88;;;;;;;;;;4933987;29;20409;-81
2023/11/26 12:49:55;;;;;;;19.77;7.87;;;;;;;;;;4918690;29;20104;-81
2023/11/26 12:52:20;;;;;;;13.93;6.68;;;;;;;;;;4933834;29;20337;-81
2023/11/26 12:54:46;;;;;;;14.60;6.50;;;;;;;;;;4917986;29;20056;-81
2023/11/26 12:57:11;;;;;;;13.80;6.38;;;;;;;;;;4933767;29;20286;-81
2023/11/26 12:59:46;;;;;;;10.05;6.03;;;;;;;;;;4933164;29;20027;-81
2023/11/26 13:02:12;;;;;;;12.07;5.50;;;;;;;;;;4919027;29;20032;-81
2023/11/26 13:04:37;;;;;;;15.88;5.55;;;;;;;;;;4919220;29;20528;-81
2023/11/26 13:07:04;;;;;;;10.93;5.07;;;;;;;;;;4917739;29;20024;-81
2023/11/26 13:09:29;;;;;;;12.95;4.68;;;;;;;;;;4919029;29;20055;-81
2023/11/26 13:12:01;;;;;;;15.52;5.10;;;;;;;;;;4917683;29;20432;-81
2023/11/26 13:14:26;;;;;;;10.13;4.82;;;;;;;;;;4917736;29;20103;-81
2023/11/26 13:16:53;;;;;;;10.95;4.47;;;;;;;;;;4917983;29;20107;-81
2023/11/26 13:19:19;;;;;;;11.65;5.32;;;;;;;;;;4918518;29;20028;-81
2023/11/26 13:21:48;;;;;;;6.22;4.22;;;;;;;;;;4917397;29;20024;-81
2023/11/26 13:24:14;;;;;;;12.95;5.53;;;;;;;;;;4917475;29;20020;-81
2023/11/26 13:26:39;;;;;;;10.30;4.80;;;;;;;;;;4918603;29;20059;-81
2023/11/26 13:29:04;;;;;;;17.65;6.15;;;;;;;;;;4918669;29;20027;-81
2023/11/26 13:31:29;;;;;;;10.23;4.70;;;;;;;;;;4933230;29;20021;-81
2023/11/26 13:33:55;;;;;;;14.73;4.93;;;;;;;;;;4918498;29;20262;-82
2023/11/26 13:36:20;;;;;;;10.83;5.10;;;;;;;;;;4933085;29;20063;-81
2023/11/26 13:38:45;;;;;;;9.25;4.95;;;;;;;;;;4918461;29;20247;-82
2023/11/26 13:41:11;;;;;;;9.87;5.47;;;;;;;;;;4932990;29;20063;-82
2023/11/26 13:43:37;;;;;;;17.90;5.35;;;;;;;;;;4932834;29;20373;-82
2023/11/26 13:46:03;;;;;;;14.30;5.65;;;;;;;;;;4933192;29;20024;-81
2023/11/26 13:48:28;;;;;;;12.52;5.30;;;;;;;;;;4918301;29;20027;-82
2023/11/26 13:50:54;;;;;;;14.05;5.13;;;;;;;;;;4918333;29;20020;-82
2023/11/26 13:53:19;;;;;;;14.80;5.03;;;;;;;;;;4916936;29;20027;-82
2023/11/26 13:55:44;;;;;;;15.23;5.50;;;;;;;;;;4933042;29;20417;-82
2023/11/26 13:58:10;;;;;;;16.70;4.82;;;;;;;;;;4932609;29;20028;-81
2023/11/26 14:00:35;;;;;;;12.10;5.88;;;;;;;;;;4916812;29;20392;-82
2023/11/26 14:03:00;;;;;;;14.95;5.22;;;;;;;;;;4916716;29;20028;-82
2023/11/26 14:05:26;;;;;;;11.55;4.78;;;;;;;;;;4932501;29;20560;-81
2023/11/26 14:07:54;;;;;;;22.23;6.60;;;;;;;;;;4917934;29;20103;-81
2023/11/26 14:10:20;;;;;;;18.38;5.90;;;;;;;;;;4916638;29;20112;-81
2023/11/26 14:12:49;;;;;;;16.35;6.00;;;;;;;;;;4916580;29;20047;-81
2023/11/26 14:15:15;;;;;;;14.38;5.65;;;;;;;;;;4916501;29;20020;-82
2023/11/26 14:17:47;;;;;;;14.88;5.90;;;;;;;;;;4917718;29;20036;-81
2023/11/26 14:20:13;;;;;;;14.70;5.63;;;;;;;;;;4917696;29;20024;-81
2023/11/26 14:22:39;;;;;;;14.18;5.30;;;;;;;;;;4916309;29;20504;-81
2023/11/26 14:25:05;;;;;;;21.70;6.13;;;;;;;;;;4917708;29;20032;-81
2023/11/26 14:27:31;;;;;;;16.42;5.97;;;;;;;;;;4916147;29;20135;-81
2023/11/26 14:29:57;;;;;;;17.58;6.13;;;;;;;;;;4915987;29;20440;-81
2023/11/26 14:32:22;;;;;;;12.05;6.10;;;;;;;;;;4916268;29;20032;-81